sensor_id;sensor_type;location;lat;lon;timestamp;P1;durP1;ratioP1;P2;durP2;ratioP2
19306;SDS011;9788;48.194;16.318;2024-02-16T00:00:26;28.33;;;18.45;;
19306;SDS011;9788;48.194;16.318;2024-02-16T00:02:55;31.25;;;18.17;;
19306;SDS011;9788;48.194;16.318;2024-02-16T00:05:26;31.48;;;18.17;;
19306;SDS011;9788;48.194;16.318;2024-02-16T00:07:55;30.98;;;18.83;;
19306;SDS011;9788;48.194;16.318;2024-02-16T00:10:23;33.75;;;19.85;;
19306;SDS011;9788;48.194;16.318;2024-02-16T00:12:53;29.90;;;17.45;;
19306;SDS011;9788;48.194;16.318;2024-02-16T00:15:21;35.13;;;19.80;;
19306;SDS011;9788;48.194;16.318;2024-02-16T00:17:50;27.37;;;18.83;;
19306;SDS011;9788;48.194;16.318;2024-02-16T00:20:23;33.60;;;19.37;;
19306;SDS011;9788;48.194;16.318;2024-02-16T00:22:51;32.13;;;18.67;;
19306;SDS011;9788;48.194;16.318;2024-02-16T00:25:27;30.63;;;18.53;;
19306;SDS011;9788;48.194;16.318;2024-02-16T00:27:57;28.85;;;18.75;;
19306;SDS011;9788;48.194;16.318;2024-02-16T00:30:26;30.00;;;17.70;;
19306;SDS011;9788;48.194;16.318;2024-02-16T00:32:55;28.67;;;18.85;;
19306;SDS011;9788;48.194;16.318;2024-02-16T00:35:24;28.70;;;17.80;;
19306;SDS011;9788;48.194;16.318;2024-02-16T00:37:56;31.47;;;18.53;;
19306;SDS011;9788;48.194;16.318;2024-02-16T00:40:25;30.80;;;18.10;;
19306;SDS011;9788;48.194;16.318;2024-02-16T00:42:53;31.00;;;18.23;;
19306;SDS011;9788;48.194;16.318;2024-02-16T00:45:24;31.77;;;19.33;;
19306;SDS011;9788;48.194;16.318;2024-02-16T00:47:53;31.97;;;17.93;;
19306;SDS011;9788;48.194;16.318;2024-02-16T00:50:22;29.03;;;17.87;;
19306;SDS011;9788;48.194;16.318;2024-02-16T00:52:54;26.87;;;17.30;;
19306;SDS011;9788;48.194;16.318;2024-02-16T00:55:26;27.77;;;17.13;;
19306;SDS011;9788;48.194;16.318;2024-02-16T00:57:55;28.80;;;17.83;;
19306;SDS011;9788;48.194;16.318;2024-02-16T01:00:25;32.10;;;17.90;;
19306;SDS011;9788;48.194;16.318;2024-02-16T01:02:53;28.80;;;16.87;;
19306;SDS011;9788;48.194;16.318;2024-02-16T01:05:24;29.93;;;17.17;;
19306;SDS011;9788;48.194;16.318;2024-02-16T01:07:52;28.07;;;17.47;;
19306;SDS011;9788;48.194;16.318;2024-02-16T01:10:21;30.67;;;18.63;;
19306;SDS011;9788;48.194;16.318;2024-02-16T01:12:49;28.83;;;17.80;;
19306;SDS011;9788;48.194;16.318;2024-02-16T01:15:19;28.23;;;17.07;;
19306;SDS011;9788;48.194;16.318;2024-02-16T01:17:51;31.97;;;17.57;;
19306;SDS011;9788;48.194;16.318;2024-02-16T01:20:20;29.53;;;17.50;;
19306;SDS011;9788;48.194;16.318;2024-02-16T01:22:55;28.80;;;17.47;;
19306;SDS011;9788;48.194;16.318;2024-02-16T01:25:25;29.07;;;17.57;;
19306;SDS011;9788;48.194;16.318;2024-02-16T01:27:53;29.93;;;17.03;;
19306;SDS011;9788;48.194;16.318;2024-02-16T01:30:22;27.73;;;17.70;;
19306;SDS011;9788;48.194;16.318;2024-02-16T01:32:52;27.40;;;16.90;;
19306;SDS011;9788;48.194;16.318;2024-02-16T01:35:20;27.43;;;16.70;;
19306;SDS011;9788;48.194;16.318;2024-02-16T01:37:49;30.20;;;17.47;;
19306;SDS011;9788;48.194;16.318;2024-02-16T01:40:17;25.47;;;17.17;;
19306;SDS011;9788;48.194;16.318;2024-02-16T01:42:46;26.97;;;16.33;;
19306;SDS011;9788;48.194;16.318;2024-02-16T01:45:18;30.63;;;17.80;;
19306;SDS011;9788;48.194;16.318;2024-02-16T01:47:47;29.27;;;17.60;;
19306;SDS011;9788;48.194;16.318;2024-02-16T01:50:18;26.47;;;17.47;;
19306;SDS011;9788;48.194;16.318;2024-02-16T01:52:49;26.30;;;16.63;;
19306;SDS011;9788;48.194;16.318;2024-02-16T01:55:18;30.30;;;17.83;;
19306;SDS011;9788;48.194;16.318;2024-02-16T01:57:48;30.53;;;16.73;;
19306;SDS011;9788;48.194;16.318;2024-02-16T02:00:17;26.23;;;16.47;;
19306;SDS011;9788;48.194;16.318;2024-02-16T02:02:51;30.93;;;17.63;;
19306;SDS011;9788;48.194;16.318;2024-02-16T02:05:21;28.17;;;16.57;;
19306;SDS011;9788;48.194;16.318;2024-02-16T02:07:50;27.20;;;17.10;;
19306;SDS011;9788;48.194;16.318;2024-02-16T02:10:18;26.10;;;16.90;;
19306;SDS011;9788;48.194;16.318;2024-02-16T02:12:46;27.70;;;17.07;;
19306;SDS011;9788;48.194;16.318;2024-02-16T02:15:14;24.43;;;16.47;;
19306;SDS011;9788;48.194;16.318;2024-02-16T02:17:45;29.33;;;16.67;;
19306;SDS011;9788;48.194;16.318;2024-02-16T02:20:13;28.37;;;16.47;;
19306;SDS011;9788;48.194;16.318;2024-02-16T02:22:43;24.73;;;16.57;;
19306;SDS011;9788;48.194;16.318;2024-02-16T02:25:11;28.70;;;16.87;;
19306;SDS011;9788;48.194;16.318;2024-02-16T02:27:39;27.97;;;16.73;;
19306;SDS011;9788;48.194;16.318;2024-02-16T02:30:09;23.07;;;15.87;;
19306;SDS011;9788;48.194;16.318;2024-02-16T02:32:38;25.70;;;15.83;;
19306;SDS011;9788;48.194;16.318;2024-02-16T02:35:09;26.77;;;16.80;;
19306;SDS011;9788;48.194;16.318;2024-02-16T02:37:40;26.63;;;16.47;;
19306;SDS011;9788;48.194;16.318;2024-02-16T02:40:10;25.17;;;16.40;;
19306;SDS011;9788;48.194;16.318;2024-02-16T02:42:39;28.60;;;16.87;;
19306;SDS011;9788;48.194;16.318;2024-02-16T02:45:08;29.17;;;16.80;;
19306;SDS011;9788;48.194;16.318;2024-02-16T02:47:38;29.23;;;17.80;;
19306;SDS011;9788;48.194;16.318;2024-02-16T02:50:19;31.47;;;19.77;;
19306;SDS011;9788;48.194;16.318;2024-02-16T02:52:47;31.67;;;18.93;;
19306;SDS011;9788;48.194;16.318;2024-02-16T02:55:17;32.87;;;19.50;;
19306;SDS011;9788;48.194;16.318;2024-02-16T02:57:45;34.27;;;20.53;;
19306;SDS011;9788;48.194;16.318;2024-02-16T03:00:14;34.53;;;20.27;;
19306;SDS011;9788;48.194;16.318;2024-02-16T03:02:44;34.80;;;20.40;;
19306;SDS011;9788;48.194;16.318;2024-02-16T03:05:14;34.03;;;20.53;;
19306;SDS011;9788;48.194;16.318;2024-02-16T03:07:46;33.23;;;20.07;;
19306;SDS011;9788;48.194;16.318;2024-02-16T03:10:16;33.30;;;20.77;;
19306;SDS011;9788;48.194;16.318;2024-02-16T03:12:48;33.67;;;21.03;;
19306;SDS011;9788;48.194;16.318;2024-02-16T03:15:18;32.43;;;19.90;;
19306;SDS011;9788;48.194;16.318;2024-02-16T03:17:46;35.13;;;20.53;;
19306;SDS011;9788;48.194;16.318;2024-02-16T03:20:15;32.17;;;20.10;;
19306;SDS011;9788;48.194;16.318;2024-02-16T03:22:43;33.57;;;19.97;;
19306;SDS011;9788;48.194;16.318;2024-02-16T03:25:11;30.20;;;20.60;;
19306;SDS011;9788;48.194;16.318;2024-02-16T03:27:44;29.33;;;19.67;;
19306;SDS011;9788;48.194;16.318;2024-02-16T03:30:13;33.57;;;20.33;;
19306;SDS011;9788;48.194;16.318;2024-02-16T03:32:42;34.77;;;20.50;;
19306;SDS011;9788;48.194;16.318;2024-02-16T03:35:10;31.77;;;20.50;;
19306;SDS011;9788;48.194;16.318;2024-02-16T03:37:38;33.20;;;19.43;;
19306;SDS011;9788;48.194;16.318;2024-02-16T03:40:08;35.40;;;20.87;;
19306;SDS011;9788;48.194;16.318;2024-02-16T03:42:39;33.13;;;20.83;;
19306;SDS011;9788;48.194;16.318;2024-02-16T03:45:12;34.97;;;20.60;;
19306;SDS011;9788;48.194;16.318;2024-02-16T03:47:40;35.97;;;21.57;;
19306;SDS011;9788;48.194;16.318;2024-02-16T03:50:09;36.67;;;20.63;;
19306;SDS011;9788;48.194;16.318;2024-02-16T03:52:38;30.00;;;19.93;;
19306;SDS011;9788;48.194;16.318;2024-02-16T03:55:06;38.03;;;21.20;;
19306;SDS011;9788;48.194;16.318;2024-02-16T03:57:35;32.97;;;19.13;;
19306;SDS011;9788;48.194;16.318;2024-02-16T04:00:05;27.87;;;18.30;;
19306;SDS011;9788;48.194;16.318;2024-02-16T04:02:36;30.53;;;18.83;;
19306;SDS011;9788;48.194;16.318;2024-02-16T04:05:05;30.53;;;18.47;;
19306;SDS011;9788;48.194;16.318;2024-02-16T04:07:34;27.23;;;18.70;;
19306;SDS011;9788;48.194;16.318;2024-02-16T04:10:04;27.93;;;17.40;;
19306;SDS011;9788;48.194;16.318;2024-02-16T04:15:34;28.87;;;16.37;;
19306;SDS011;9788;48.194;16.318;2024-02-16T04:18:05;25.87;;;17.07;;
19306;SDS011;9788;48.194;16.318;2024-02-16T04:20:34;25.23;;;16.60;;
19306;SDS011;9788;48.194;16.318;2024-02-16T04:23:04;24.87;;;16.50;;
19306;SDS011;9788;48.194;16.318;2024-02-16T04:25:36;26.33;;;16.13;;
19306;SDS011;9788;48.194;16.318;2024-02-16T04:28:04;28.43;;;16.40;;
19306;SDS011;9788;48.194;16.318;2024-02-16T04:30:33;25.37;;;15.50;;
19306;SDS011;9788;48.194;16.318;2024-02-16T04:33:01;25.47;;;15.87;;
19306;SDS011;9788;48.194;16.318;2024-02-16T04:35:34;23.73;;;15.07;;
19306;SDS011;9788;48.194;16.318;2024-02-16T04:38:02;26.13;;;15.17;;
19306;SDS011;9788;48.194;16.318;2024-02-16T04:40:31;24.07;;;15.07;;
19306;SDS011;9788;48.194;16.318;2024-02-16T04:43:04;23.17;;;14.63;;
19306;SDS011;9788;48.194;16.318;2024-02-16T04:45:33;22.67;;;14.87;;
19306;SDS011;9788;48.194;16.318;2024-02-16T04:48:02;24.47;;;14.97;;
19306;SDS011;9788;48.194;16.318;2024-02-16T04:50:31;22.83;;;14.50;;
19306;SDS011;9788;48.194;16.318;2024-02-16T04:53:02;21.60;;;13.87;;
19306;SDS011;9788;48.194;16.318;2024-02-16T04:55:30;22.17;;;14.27;;
19306;SDS011;9788;48.194;16.318;2024-02-16T04:58:00;25.23;;;14.67;;
19306;SDS011;9788;48.194;16.318;2024-02-16T05:00:31;22.43;;;13.87;;
19306;SDS011;9788;48.194;16.318;2024-02-16T05:03:00;22.90;;;14.07;;
19306;SDS011;9788;48.194;16.318;2024-02-16T05:05:30;21.53;;;13.87;;
19306;SDS011;9788;48.194;16.318;2024-02-16T05:07:59;24.13;;;14.23;;
19306;SDS011;9788;48.194;16.318;2024-02-16T05:10:28;24.53;;;13.40;;
19306;SDS011;9788;48.194;16.318;2024-02-16T05:12:57;21.50;;;13.23;;
19306;SDS011;9788;48.194;16.318;2024-02-16T05:15:27;22.17;;;14.00;;
19306;SDS011;9788;48.194;16.318;2024-02-16T05:17:56;23.70;;;14.10;;
19306;SDS011;9788;48.194;16.318;2024-02-16T05:20:26;22.63;;;14.00;;
19306;SDS011;9788;48.194;16.318;2024-02-16T05:22:55;26.00;;;14.20;;
19306;SDS011;9788;48.194;16.318;2024-02-16T05:25:25;19.70;;;13.33;;
19306;SDS011;9788;48.194;16.318;2024-02-16T05:27:54;22.50;;;14.47;;
19306;SDS011;9788;48.194;16.318;2024-02-16T05:30:22;22.27;;;14.07;;
19306;SDS011;9788;48.194;16.318;2024-02-16T05:32:54;22.47;;;13.77;;
19306;SDS011;9788;48.194;16.318;2024-02-16T05:35:25;22.10;;;14.13;;
19306;SDS011;9788;48.194;16.318;2024-02-16T05:37:55;23.87;;;14.00;;
19306;SDS011;9788;48.194;16.318;2024-02-16T05:40:27;24.47;;;14.63;;
19306;SDS011;9788;48.194;16.318;2024-02-16T05:42:57;25.03;;;14.40;;
19306;SDS011;9788;48.194;16.318;2024-02-16T05:45:29;24.00;;;14.53;;
19306;SDS011;9788;48.194;16.318;2024-02-16T05:47:57;24.57;;;14.33;;
19306;SDS011;9788;48.194;16.318;2024-02-16T05:50:26;25.03;;;14.03;;
19306;SDS011;9788;48.194;16.318;2024-02-16T05:52:58;23.70;;;13.67;;
19306;SDS011;9788;48.194;16.318;2024-02-16T05:55:31;18.17;;;12.73;;
19306;SDS011;9788;48.194;16.318;2024-02-16T05:58:01;21.27;;;14.03;;
19306;SDS011;9788;48.194;16.318;2024-02-16T06:00:33;20.50;;;13.47;;
19306;SDS011;9788;48.194;16.318;2024-02-16T06:03:02;21.77;;;13.30;;
19306;SDS011;9788;48.194;16.318;2024-02-16T06:05:30;22.90;;;12.67;;
19306;SDS011;9788;48.194;16.318;2024-02-16T06:08:00;19.50;;;13.10;;
19306;SDS011;9788;48.194;16.318;2024-02-16T06:10:29;19.47;;;13.20;;
19306;SDS011;9788;48.194;16.318;2024-02-16T06:12:59;21.43;;;12.90;;
19306;SDS011;9788;48.194;16.318;2024-02-16T06:15:31;22.30;;;12.90;;
19306;SDS011;9788;48.194;16.318;2024-02-16T06:18:01;17.27;;;11.20;;
19306;SDS011;9788;48.194;16.318;2024-02-16T06:20:30;18.97;;;12.20;;
19306;SDS011;9788;48.194;16.318;2024-02-16T06:22:59;23.47;;;13.33;;
19306;SDS011;9788;48.194;16.318;2024-02-16T06:25:32;25.80;;;15.00;;
19306;SDS011;9788;48.194;16.318;2024-02-16T06:28:02;20.43;;;13.10;;
19306;SDS011;9788;48.194;16.318;2024-02-16T06:30:32;23.43;;;13.57;;
19306;SDS011;9788;48.194;16.318;2024-02-16T06:33:01;23.37;;;14.60;;
19306;SDS011;9788;48.194;16.318;2024-02-16T06:35:32;26.30;;;15.10;;
19306;SDS011;9788;48.194;16.318;2024-02-16T06:38:02;22.67;;;13.43;;
19306;SDS011;9788;48.194;16.318;2024-02-16T06:40:34;22.27;;;13.33;;
19306;SDS011;9788;48.194;16.318;2024-02-16T06:43:04;21.97;;;13.57;;
19306;SDS011;9788;48.194;16.318;2024-02-16T06:45:32;24.57;;;14.03;;
19306;SDS011;9788;48.194;16.318;2024-02-16T06:48:04;20.60;;;12.77;;
19306;SDS011;9788;48.194;16.318;2024-02-16T06:50:33;23.63;;;14.00;;
19306;SDS011;9788;48.194;16.318;2024-02-16T06:53:02;26.73;;;13.43;;
19306;SDS011;9788;48.194;16.318;2024-02-16T06:55:31;25.70;;;15.90;;
19306;SDS011;9788;48.194;16.318;2024-02-16T06:58:07;32.63;;;15.70;;
19306;SDS011;9788;48.194;16.318;2024-02-16T07:00:35;27.10;;;13.40;;
19306;SDS011;9788;48.194;16.318;2024-02-16T07:03:05;20.90;;;12.53;;
19306;SDS011;9788;48.194;16.318;2024-02-16T07:05:35;18.87;;;12.60;;
19306;SDS011;9788;48.194;16.318;2024-02-16T07:08:04;18.27;;;12.07;;
19306;SDS011;9788;48.194;16.318;2024-02-16T07:10:35;21.33;;;13.07;;
19306;SDS011;9788;48.194;16.318;2024-02-16T07:13:03;17.83;;;12.07;;
19306;SDS011;9788;48.194;16.318;2024-02-16T07:15:32;24.17;;;12.80;;
19306;SDS011;9788;48.194;16.318;2024-02-16T07:18:02;21.37;;;12.13;;
19306;SDS011;9788;48.194;16.318;2024-02-16T07:20:31;19.50;;;12.03;;
19306;SDS011;9788;48.194;16.318;2024-02-16T07:22:59;17.90;;;11.57;;
19306;SDS011;9788;48.194;16.318;2024-02-16T07:25:29;17.10;;;11.10;;
19306;SDS011;9788;48.194;16.318;2024-02-16T07:27:59;18.63;;;11.67;;
19306;SDS011;9788;48.194;16.318;2024-02-16T07:30:28;16.63;;;11.73;;
19306;SDS011;9788;48.194;16.318;2024-02-16T07:33:08;16.70;;;10.67;;
19306;SDS011;9788;48.194;16.318;2024-02-16T07:35:37;17.57;;;11.23;;
19306;SDS011;9788;48.194;16.318;2024-02-16T07:38:05;16.77;;;10.10;;
19306;SDS011;9788;48.194;16.318;2024-02-16T07:40:35;16.40;;;10.77;;
19306;SDS011;9788;48.194;16.318;2024-02-16T07:43:09;17.20;;;10.07;;
19306;SDS011;9788;48.194;16.318;2024-02-16T07:45:38;17.00;;;9.73;;
19306;SDS011;9788;48.194;16.318;2024-02-16T07:48:13;15.93;;;11.07;;
19306;SDS011;9788;48.194;16.318;2024-02-16T07:50:41;14.43;;;9.53;;
19306;SDS011;9788;48.194;16.318;2024-02-16T07:53:10;14.43;;;9.53;;
19306;SDS011;9788;48.194;16.318;2024-02-16T07:55:42;14.77;;;10.23;;
19306;SDS011;9788;48.194;16.318;2024-02-16T07:58:13;17.77;;;10.53;;
19306;SDS011;9788;48.194;16.318;2024-02-16T08:00:41;16.40;;;10.20;;
19306;SDS011;9788;48.194;16.318;2024-02-16T08:03:10;16.00;;;10.20;;
19306;SDS011;9788;48.194;16.318;2024-02-16T08:05:39;15.80;;;10.00;;
19306;SDS011;9788;48.194;16.318;2024-02-16T08:08:08;16.10;;;9.77;;
19306;SDS011;9788;48.194;16.318;2024-02-16T08:10:36;18.87;;;9.60;;
19306;SDS011;9788;48.194;16.318;2024-02-16T08:13:05;17.95;;;9.90;;
19306;SDS011;9788;48.194;16.318;2024-02-16T08:15:34;16.63;;;9.23;;
19306;SDS011;9788;48.194;16.318;2024-02-16T08:18:04;14.70;;;9.48;;
19306;SDS011;9788;48.194;16.318;2024-02-16T08:20:33;14.55;;;9.57;;
19306;SDS011;9788;48.194;16.318;2024-02-16T08:23:03;14.45;;;8.52;;
19306;SDS011;9788;48.194;16.318;2024-02-16T08:25:31;13.18;;;8.85;;
19306;SDS011;9788;48.194;16.318;2024-02-16T08:28:00;18.63;;;9.40;;
19306;SDS011;9788;48.194;16.318;2024-02-16T08:30:30;13.93;;;10.18;;
19306;SDS011;9788;48.194;16.318;2024-02-16T08:33:04;14.90;;;9.70;;
19306;SDS011;9788;48.194;16.318;2024-02-16T08:35:32;16.75;;;9.35;;
19306;SDS011;9788;48.194;16.318;2024-02-16T08:38:01;13.23;;;9.20;;
19306;SDS011;9788;48.194;16.318;2024-02-16T08:40:30;16.30;;;9.45;;
19306;SDS011;9788;48.194;16.318;2024-02-16T08:42:59;12.38;;;8.07;;
19306;SDS011;9788;48.194;16.318;2024-02-16T08:45:29;12.27;;;8.25;;
19306;SDS011;9788;48.194;16.318;2024-02-16T08:47:58;13.68;;;8.30;;
19306;SDS011;9788;48.194;16.318;2024-02-16T08:50:30;12.23;;;7.60;;
19306;SDS011;9788;48.194;16.318;2024-02-16T08:52:59;11.95;;;7.40;;
19306;SDS011;9788;48.194;16.318;2024-02-16T08:55:28;10.35;;;6.38;;
19306;SDS011;9788;48.194;16.318;2024-02-16T08:57:58;11.25;;;6.18;;
19306;SDS011;9788;48.194;16.318;2024-02-16T09:00:26;8.88;;;5.95;;
19306;SDS011;9788;48.194;16.318;2024-02-16T09:02:56;9.18;;;5.93;;
19306;SDS011;9788;48.194;16.318;2024-02-16T09:05:25;11.40;;;6.80;;
19306;SDS011;9788;48.194;16.318;2024-02-16T09:07:55;8.35;;;5.43;;
19306;SDS011;9788;48.194;16.318;2024-02-16T09:10:26;7.05;;;5.20;;
19306;SDS011;9788;48.194;16.318;2024-02-16T09:12:54;9.13;;;5.30;;
19306;SDS011;9788;48.194;16.318;2024-02-16T09:15:24;9.52;;;6.72;;
19306;SDS011;9788;48.194;16.318;2024-02-16T09:17:54;10.90;;;5.32;;
19306;SDS011;9788;48.194;16.318;2024-02-16T09:20:23;6.65;;;4.80;;
19306;SDS011;9788;48.194;16.318;2024-02-16T09:22:57;8.20;;;4.93;;
19306;SDS011;9788;48.194;16.318;2024-02-16T09:25:27;6.30;;;4.70;;
19306;SDS011;9788;48.194;16.318;2024-02-16T09:27:58;8.48;;;4.90;;
19306;SDS011;9788;48.194;16.318;2024-02-16T09:30:29;5.40;;;4.40;;
19306;SDS011;9788;48.194;16.318;2024-02-16T09:32:58;5.95;;;4.30;;
19306;SDS011;9788;48.194;16.318;2024-02-16T09:35:27;7.50;;;4.30;;
19306;SDS011;9788;48.194;16.318;2024-02-16T09:37:57;7.35;;;4.45;;
19306;SDS011;9788;48.194;16.318;2024-02-16T09:40:29;8.60;;;4.50;;
19306;SDS011;9788;48.194;16.318;2024-02-16T09:43:06;7.15;;;4.55;;
19306;SDS011;9788;48.194;16.318;2024-02-16T09:45:34;7.45;;;4.70;;
19306;SDS011;9788;48.194;16.318;2024-02-16T09:48:03;6.07;;;4.20;;
19306;SDS011;9788;48.194;16.318;2024-02-16T09:50:37;6.95;;;5.35;;
19306;SDS011;9788;48.194;16.318;2024-02-16T09:53:07;5.30;;;3.90;;
19306;SDS011;9788;48.194;16.318;2024-02-16T09:55:44;6.22;;;4.03;;
19306;SDS011;9788;48.194;16.318;2024-02-16T09:58:13;5.07;;;4.05;;
19306;SDS011;9788;48.194;16.318;2024-02-16T10:00:53;10.80;;;4.13;;
19306;SDS011;9788;48.194;16.318;2024-02-16T10:03:24;4.72;;;3.72;;
19306;SDS011;9788;48.194;16.318;2024-02-16T10:06:03;5.65;;;4.03;;
19306;SDS011;9788;48.194;16.318;2024-02-16T10:08:46;4.82;;;3.55;;
19306;SDS011;9788;48.194;16.318;2024-02-16T10:11:15;7.03;;;3.70;;
19306;SDS011;9788;48.194;16.318;2024-02-16T10:13:56;5.05;;;3.45;;
19306;SDS011;9788;48.194;16.318;2024-02-16T10:16:25;4.22;;;3.35;;
19306;SDS011;9788;48.194;16.318;2024-02-16T10:18:54;5.13;;;3.75;;
19306;SDS011;9788;48.194;16.318;2024-02-16T10:21:24;5.15;;;3.40;;
19306;SDS011;9788;48.194;16.318;2024-02-16T10:23:59;5.03;;;3.47;;
19306;SDS011;9788;48.194;16.318;2024-02-16T10:26:34;6.28;;;3.50;;
19306;SDS011;9788;48.194;16.318;2024-02-16T10:29:04;5.97;;;3.80;;
19306;SDS011;9788;48.194;16.318;2024-02-16T10:31:38;5.35;;;3.75;;
19306;SDS011;9788;48.194;16.318;2024-02-16T10:34:07;4.00;;;3.38;;
19306;SDS011;9788;48.194;16.318;2024-02-16T10:36:37;4.45;;;3.28;;
19306;SDS011;9788;48.194;16.318;2024-02-16T10:39:14;5.88;;;3.33;;
19306;SDS011;9788;48.194;16.318;2024-02-16T10:41:45;7.32;;;3.33;;
19306;SDS011;9788;48.194;16.318;2024-02-16T10:44:15;3.95;;;2.90;;
19306;SDS011;9788;48.194;16.318;2024-02-16T10:46:44;4.18;;;2.95;;
19306;SDS011;9788;48.194;16.318;2024-02-16T10:49:13;6.25;;;3.20;;
19306;SDS011;9788;48.194;16.318;2024-02-16T10:51:44;4.43;;;3.05;;
19306;SDS011;9788;48.194;16.318;2024-02-16T10:54:17;5.35;;;3.10;;
19306;SDS011;9788;48.194;16.318;2024-02-16T10:56:48;4.28;;;3.10;;
19306;SDS011;9788;48.194;16.318;2024-02-16T10:59:18;3.42;;;3.08;;
19306;SDS011;9788;48.194;16.318;2024-02-16T11:01:47;3.60;;;2.92;;
19306;SDS011;9788;48.194;16.318;2024-02-16T11:04:35;5.95;;;3.17;;
19306;SDS011;9788;48.194;16.318;2024-02-16T11:07:10;4.28;;;3.25;;
19306;SDS011;9788;48.194;16.318;2024-02-16T11:09:41;4.53;;;3.10;;
19306;SDS011;9788;48.194;16.318;2024-02-16T11:12:12;4.80;;;3.63;;
19306;SDS011;9788;48.194;16.318;2024-02-16T11:14:44;4.35;;;3.30;;
19306;SDS011;9788;48.194;16.318;2024-02-16T11:17:15;5.07;;;3.20;;
19306;SDS011;9788;48.194;16.318;2024-02-16T11:19:50;6.10;;;3.33;;
19306;SDS011;9788;48.194;16.318;2024-02-16T11:22:31;4.65;;;3.13;;
19306;SDS011;9788;48.194;16.318;2024-02-16T11:25:07;3.92;;;3.28;;
19306;SDS011;9788;48.194;16.318;2024-02-16T11:27:38;5.63;;;3.60;;
19306;SDS011;9788;48.194;16.318;2024-02-16T11:30:09;3.63;;;3.22;;
19306;SDS011;9788;48.194;16.318;2024-02-16T11:32:42;5.68;;;3.53;;
19306;SDS011;9788;48.194;16.318;2024-02-16T11:35:11;6.82;;;3.78;;
19306;SDS011;9788;48.194;16.318;2024-02-16T11:37:42;5.18;;;3.10;;
19306;SDS011;9788;48.194;16.318;2024-02-16T11:40:15;3.65;;;3.00;;
19306;SDS011;9788;48.194;16.318;2024-02-16T11:42:44;4.50;;;2.97;;
19306;SDS011;9788;48.194;16.318;2024-02-16T11:45:13;4.00;;;3.00;;
19306;SDS011;9788;48.194;16.318;2024-02-16T11:47:43;5.07;;;2.80;;
19306;SDS011;9788;48.194;16.318;2024-02-16T11:50:15;6.63;;;3.45;;
19306;SDS011;9788;48.194;16.318;2024-02-16T11:52:46;4.53;;;3.00;;
19306;SDS011;9788;48.194;16.318;2024-02-16T11:55:16;3.05;;;2.75;;
19306;SDS011;9788;48.194;16.318;2024-02-16T11:57:44;3.40;;;2.50;;
19306;SDS011;9788;48.194;16.318;2024-02-16T12:00:17;3.78;;;2.70;;
19306;SDS011;9788;48.194;16.318;2024-02-16T12:02:45;4.78;;;2.67;;
19306;SDS011;9788;48.194;16.318;2024-02-16T12:05:13;4.47;;;2.47;;
19306;SDS011;9788;48.194;16.318;2024-02-16T12:07:43;3.33;;;2.55;;
19306;SDS011;9788;48.194;16.318;2024-02-16T12:10:13;4.05;;;2.55;;
19306;SDS011;9788;48.194;16.318;2024-02-16T12:12:43;4.43;;;2.45;;
19306;SDS011;9788;48.194;16.318;2024-02-16T12:15:12;3.00;;;2.30;;
19306;SDS011;9788;48.194;16.318;2024-02-16T12:17:46;4.07;;;2.47;;
19306;SDS011;9788;48.194;16.318;2024-02-16T12:20:18;2.70;;;2.50;;
19306;SDS011;9788;48.194;16.318;2024-02-16T12:22:57;3.25;;;2.20;;
19306;SDS011;9788;48.194;16.318;2024-02-16T12:25:32;3.78;;;2.38;;
19306;SDS011;9788;48.194;16.318;2024-02-16T12:28:03;3.25;;;2.53;;
19306;SDS011;9788;48.194;16.318;2024-02-16T12:30:35;3.78;;;2.35;;
19306;SDS011;9788;48.194;16.318;2024-02-16T12:33:06;2.83;;;2.25;;
19306;SDS011;9788;48.194;16.318;2024-02-16T12:35:36;4.82;;;2.30;;
19306;SDS011;9788;48.194;16.318;2024-02-16T12:38:07;2.80;;;1.98;;
19306;SDS011;9788;48.194;16.318;2024-02-16T12:40:37;3.05;;;2.17;;
19306;SDS011;9788;48.194;16.318;2024-02-16T12:43:06;3.47;;;2.63;;
19306;SDS011;9788;48.194;16.318;2024-02-16T12:45:35;2.97;;;2.35;;
19306;SDS011;9788;48.194;16.318;2024-02-16T12:48:05;3.30;;;2.45;;
19306;SDS011;9788;48.194;16.318;2024-02-16T12:50:34;4.65;;;2.50;;
19306;SDS011;9788;48.194;16.318;2024-02-16T12:53:05;3.45;;;2.35;;
19306;SDS011;9788;48.194;16.318;2024-02-16T12:55:33;2.95;;;2.38;;
19306;SDS011;9788;48.194;16.318;2024-02-16T12:58:04;6.13;;;2.78;;
19306;SDS011;9788;48.194;16.318;2024-02-16T13:00:32;4.65;;;2.38;;
19306;SDS011;9788;48.194;16.318;2024-02-16T13:03:02;4.70;;;2.67;;
19306;SDS011;9788;48.194;16.318;2024-02-16T13:05:31;4.88;;;2.97;;
19306;SDS011;9788;48.194;16.318;2024-02-16T13:08:00;3.13;;;2.35;;
19306;SDS011;9788;48.194;16.318;2024-02-16T13:10:31;3.30;;;2.72;;
19306;SDS011;9788;48.194;16.318;2024-02-16T13:13:00;3.60;;;2.70;;
19306;SDS011;9788;48.194;16.318;2024-02-16T13:15:35;3.33;;;2.50;;
19306;SDS011;9788;48.194;16.318;2024-02-16T13:18:06;3.03;;;2.42;;
19306;SDS011;9788;48.194;16.318;2024-02-16T13:20:36;2.92;;;2.63;;
19306;SDS011;9788;48.194;16.318;2024-02-16T13:23:06;4.75;;;2.85;;
19306;SDS011;9788;48.194;16.318;2024-02-16T13:25:37;3.20;;;2.60;;
19306;SDS011;9788;48.194;16.318;2024-02-16T13:28:07;4.30;;;2.72;;
19306;SDS011;9788;48.194;16.318;2024-02-16T13:30:40;5.18;;;3.08;;
19306;SDS011;9788;48.194;16.318;2024-02-16T13:33:08;5.35;;;3.13;;
19306;SDS011;9788;48.194;16.318;2024-02-16T13:35:37;8.38;;;3.70;;
19306;SDS011;9788;48.194;16.318;2024-02-16T13:38:05;7.97;;;3.70;;
19306;SDS011;9788;48.194;16.318;2024-02-16T13:40:35;6.22;;;3.78;;
19306;SDS011;9788;48.194;16.318;2024-02-16T13:43:03;6.45;;;3.40;;
19306;SDS011;9788;48.194;16.318;2024-02-16T13:45:47;4.18;;;3.42;;
19306;SDS011;9788;48.194;16.318;2024-02-16T13:48:17;5.38;;;3.80;;
19306;SDS011;9788;48.194;16.318;2024-02-16T13:50:47;5.82;;;3.75;;
19306;SDS011;9788;48.194;16.318;2024-02-16T13:53:17;4.32;;;3.35;;
19306;SDS011;9788;48.194;16.318;2024-02-16T13:55:50;6.45;;;3.45;;
19306;SDS011;9788;48.194;16.318;2024-02-16T13:58:18;6.50;;;3.40;;
19306;SDS011;9788;48.194;16.318;2024-02-16T14:00:51;3.67;;;3.10;;
19306;SDS011;9788;48.194;16.318;2024-02-16T14:03:21;5.75;;;3.40;;
19306;SDS011;9788;48.194;16.318;2024-02-16T14:05:49;6.05;;;3.20;;
19306;SDS011;9788;48.194;16.318;2024-02-16T14:08:19;3.55;;;2.90;;
19306;SDS011;9788;48.194;16.318;2024-02-16T14:10:55;6.65;;;3.20;;
19306;SDS011;9788;48.194;16.318;2024-02-16T14:13:24;4.07;;;3.10;;
19306;SDS011;9788;48.194;16.318;2024-02-16T14:15:55;4.60;;;3.33;;
19306;SDS011;9788;48.194;16.318;2024-02-16T14:18:24;3.10;;;2.80;;
19306;SDS011;9788;48.194;16.318;2024-02-16T14:21:00;4.47;;;3.20;;
19306;SDS011;9788;48.194;16.318;2024-02-16T14:23:30;4.78;;;3.10;;
19306;SDS011;9788;48.194;16.318;2024-02-16T14:26:00;4.40;;;3.10;;
19306;SDS011;9788;48.194;16.318;2024-02-16T14:28:31;5.97;;;3.25;;
19306;SDS011;9788;48.194;16.318;2024-02-16T14:31:02;3.90;;;2.80;;
19306;SDS011;9788;48.194;16.318;2024-02-16T14:33:39;4.63;;;2.67;;
19306;SDS011;9788;48.194;16.318;2024-02-16T14:36:12;3.08;;;2.60;;
19306;SDS011;9788;48.194;16.318;2024-02-16T14:38:40;3.03;;;2.40;;
19306;SDS011;9788;48.194;16.318;2024-02-16T14:41:08;3.88;;;2.97;;
19306;SDS011;9788;48.194;16.318;2024-02-16T14:43:37;2.92;;;2.63;;
19306;SDS011;9788;48.194;16.318;2024-02-16T14:46:07;3.75;;;2.67;;
19306;SDS011;9788;48.194;16.318;2024-02-16T14:48:44;5.88;;;3.05;;
19306;SDS011;9788;48.194;16.318;2024-02-16T14:51:18;2.63;;;2.15;;
19306;SDS011;9788;48.194;16.318;2024-02-16T14:53:51;4.53;;;2.47;;